Terminal Aerodrome Forecast
Issued by NWS Wilmington, OH

Current Version | Previous Version | Graphics & Text | Print | Product List | Glossary On
Versions: 1 2 3 4 5 6 7 8 9 10 11 12 13 14 15 16 17 18 19 20 21
000
FTUS41 KILN 161500 AAA
TAFCVG
TAF AMD
KCVG 161501Z 1615/1718 11010KT P6SM SCT250
     FM170000 13006KT P6SM BKN250
     FM171400 20010KT P6SM SCT250=

USA.gov is the U.S. government's official web portal to all federal, state and local government web resources and services.